sensor_id;sensor_type;location;lat;lon;timestamp;temperature;humidity
22923;DHT22;11627;51.322;22.816;2023-08-21T00:00:16;22.00;78.10
22923;DHT22;11627;51.322;22.816;2023-08-21T00:02:41;22.00;78.40
22923;DHT22;11627;51.322;22.816;2023-08-21T00:05:07;22.00;77.80
22923;DHT22;11627;51.322;22.816;2023-08-21T00:07:34;22.00;77.10
22923;DHT22;11627;51.322;22.816;2023-08-21T00:10:00;22.00;77.00
22923;DHT22;11627;51.322;22.816;2023-08-21T00:12:26;21.90;77.30
22923;DHT22;11627;51.322;22.816;2023-08-21T00:14:52;21.90;76.70
22923;DHT22;11627;51.322;22.816;2023-08-21T00:17:17;21.90;78.10
22923;DHT22;11627;51.322;22.816;2023-08-21T00:19:43;21.90;78.60
22923;DHT22;11627;51.322;22.816;2023-08-21T00:22:09;21.90;77.60
22923;DHT22;11627;51.322;22.816;2023-08-21T00:24:35;21.80;78.40
22923;DHT22;11627;51.322;22.816;2023-08-21T00:27:00;21.80;80.80
22923;DHT22;11627;51.322;22.816;2023-08-21T00:29:29;21.90;81.00
22923;DHT22;11627;51.322;22.816;2023-08-21T00:31:55;21.80;81.30
22923;DHT22;11627;51.322;22.816;2023-08-21T00:34:21;21.90;79.00
22923;DHT22;11627;51.322;22.816;2023-08-21T00:36:47;21.90;76.70
22923;DHT22;11627;51.322;22.816;2023-08-21T00:39:12;21.80;79.00
22923;DHT22;11627;51.322;22.816;2023-08-21T00:41:38;21.90;79.40
22923;DHT22;11627;51.322;22.816;2023-08-21T00:44:04;21.80;78.90
22923;DHT22;11627;51.322;22.816;2023-08-21T00:46:31;21.80;78.10
22923;DHT22;11627;51.322;22.816;2023-08-21T00:48:57;21.70;79.50
22923;DHT22;11627;51.322;22.816;2023-08-21T00:51:24;21.70;79.90
22923;DHT22;11627;51.322;22.816;2023-08-21T00:53:50;21.70;79.20
22923;DHT22;11627;51.322;22.816;2023-08-21T00:56:16;21.70;79.90
22923;DHT22;11627;51.322;22.816;2023-08-21T00:58:42;21.60;81.30
22923;DHT22;11627;51.322;22.816;2023-08-21T01:01:08;21.50;84.10
22923;DHT22;11627;51.322;22.816;2023-08-21T01:03:34;21.50;87.20
22923;DHT22;11627;51.322;22.816;2023-08-21T01:06:00;21.50;89.80
22923;DHT22;11627;51.322;22.816;2023-08-21T01:11:26;21.30;91.90
22923;DHT22;11627;51.322;22.816;2023-08-21T01:17:00;21.40;92.20
22923;DHT22;11627;51.322;22.816;2023-08-21T01:19:43;21.40;91.80
22923;DHT22;11627;51.322;22.816;2023-08-21T01:22:09;21.40;91.50
22923;DHT22;11627;51.322;22.816;2023-08-21T01:24:35;21.40;90.20
22923;DHT22;11627;51.322;22.816;2023-08-21T01:27:01;21.40;88.30
22923;DHT22;11627;51.322;22.816;2023-08-21T01:29:27;21.40;86.70
22923;DHT22;11627;51.322;22.816;2023-08-21T01:34:51;21.50;83.40
22923;DHT22;11627;51.322;22.816;2023-08-21T01:37:21;21.50;81.40
22923;DHT22;11627;51.322;22.816;2023-08-21T01:39:48;21.60;78.50
22923;DHT22;11627;51.322;22.816;2023-08-21T01:42:14;21.50;76.60
22923;DHT22;11627;51.322;22.816;2023-08-21T01:44:40;21.50;76.40
22923;DHT22;11627;51.322;22.816;2023-08-21T01:47:06;21.50;76.90
22923;DHT22;11627;51.322;22.816;2023-08-21T01:49:32;21.50;77.40
22923;DHT22;11627;51.322;22.816;2023-08-21T01:51:58;21.40;78.40
22923;DHT22;11627;51.322;22.816;2023-08-21T01:54:24;21.30;84.90
22923;DHT22;11627;51.322;22.816;2023-08-21T01:56:50;21.30;89.10
22923;DHT22;11627;51.322;22.816;2023-08-21T01:59:16;21.20;91.00
22923;DHT22;11627;51.322;22.816;2023-08-21T02:01:43;21.20;91.30
22923;DHT22;11627;51.322;22.816;2023-08-21T02:04:08;21.10;92.40
22923;DHT22;11627;51.322;22.816;2023-08-21T02:06:34;21.10;93.10
22923;DHT22;11627;51.322;22.816;2023-08-21T02:09:00;21.10;92.90
22923;DHT22;11627;51.322;22.816;2023-08-21T02:11:26;21.10;93.90
22923;DHT22;11627;51.322;22.816;2023-08-21T02:13:52;21.00;94.50
22923;DHT22;11627;51.322;22.816;2023-08-21T02:16:17;20.90;95.40
22923;DHT22;11627;51.322;22.816;2023-08-21T02:18:43;20.90;95.70
22923;DHT22;11627;51.322;22.816;2023-08-21T02:21:09;20.90;95.60
22923;DHT22;11627;51.322;22.816;2023-08-21T02:23:35;20.80;95.90
22923;DHT22;11627;51.322;22.816;2023-08-21T02:26:01;20.80;95.20
22923;DHT22;11627;51.322;22.816;2023-08-21T02:28:26;20.80;94.50
22923;DHT22;11627;51.322;22.816;2023-08-21T02:30:52;20.80;93.70
22923;DHT22;11627;51.322;22.816;2023-08-21T02:33:18;20.80;94.50
22923;DHT22;11627;51.322;22.816;2023-08-21T02:35:44;20.70;95.20
22923;DHT22;11627;51.322;22.816;2023-08-21T02:38:10;20.70;95.90
22923;DHT22;11627;51.322;22.816;2023-08-21T02:40:36;20.60;96.10
22923;DHT22;11627;51.322;22.816;2023-08-21T02:43:02;20.70;95.80
22923;DHT22;11627;51.322;22.816;2023-08-21T02:45:28;20.60;95.70
22923;DHT22;11627;51.322;22.816;2023-08-21T02:47:54;20.60;96.20
22923;DHT22;11627;51.322;22.816;2023-08-21T02:50:19;20.60;96.20
22923;DHT22;11627;51.322;22.816;2023-08-21T02:52:46;20.60;96.60
22923;DHT22;11627;51.322;22.816;2023-08-21T02:55:11;20.60;96.40
22923;DHT22;11627;51.322;22.816;2023-08-21T02:57:37;20.50;96.30
22923;DHT22;11627;51.322;22.816;2023-08-21T03:00:04;20.50;95.60
22923;DHT22;11627;51.322;22.816;2023-08-21T03:02:30;20.40;96.00
22923;DHT22;11627;51.322;22.816;2023-08-21T03:04:57;20.40;96.50
22923;DHT22;11627;51.322;22.816;2023-08-21T03:07:23;20.40;96.90
22923;DHT22;11627;51.322;22.816;2023-08-21T03:09:49;20.30;97.70
22923;DHT22;11627;51.322;22.816;2023-08-21T03:12:15;20.30;97.90
22923;DHT22;11627;51.322;22.816;2023-08-21T03:14:41;20.30;97.70
22923;DHT22;11627;51.322;22.816;2023-08-21T03:17:07;20.30;98.60
22923;DHT22;11627;51.322;22.816;2023-08-21T03:19:33;20.20;98.50
22923;DHT22;11627;51.322;22.816;2023-08-21T03:21:59;20.20;99.40
22923;DHT22;11627;51.322;22.816;2023-08-21T03:24:25;20.20;99.40
22923;DHT22;11627;51.322;22.816;2023-08-21T03:26:51;20.20;99.40
22923;DHT22;11627;51.322;22.816;2023-08-21T03:29:17;20.20;99.60
22923;DHT22;11627;51.322;22.816;2023-08-21T03:31:43;20.20;99.90
22923;DHT22;11627;51.322;22.816;2023-08-21T03:34:08;20.10;99.90
22923;DHT22;11627;51.322;22.816;2023-08-21T03:36:34;20.10;99.90
22923;DHT22;11627;51.322;22.816;2023-08-21T03:39:03;20.10;99.90
22923;DHT22;11627;51.322;22.816;2023-08-21T03:41:31;20.10;99.90
22923;DHT22;11627;51.322;22.816;2023-08-21T03:43:57;20.10;99.90
22923;DHT22;11627;51.322;22.816;2023-08-21T03:46:23;20.20;99.90
22923;DHT22;11627;51.322;22.816;2023-08-21T03:48:49;20.20;99.90
22923;DHT22;11627;51.322;22.816;2023-08-21T03:51:16;20.20;99.90
22923;DHT22;11627;51.322;22.816;2023-08-21T03:53:42;20.20;99.90
22923;DHT22;11627;51.322;22.816;2023-08-21T03:56:08;20.20;99.90
22923;DHT22;11627;51.322;22.816;2023-08-21T03:58:34;20.10;99.90
22923;DHT22;11627;51.322;22.816;2023-08-21T04:01:00;20.20;99.90
22923;DHT22;11627;51.322;22.816;2023-08-21T04:03:26;20.20;99.90
22923;DHT22;11627;51.322;22.816;2023-08-21T04:05:55;20.20;99.30
22923;DHT22;11627;51.322;22.816;2023-08-21T04:08:22;20.20;98.90
22923;DHT22;11627;51.322;22.816;2023-08-21T04:10:48;20.20;99.30
22923;DHT22;11627;51.322;22.816;2023-08-21T04:13:14;20.30;99.30
22923;DHT22;11627;51.322;22.816;2023-08-21T04:15:45;20.30;98.00
22923;DHT22;11627;51.322;22.816;2023-08-21T04:18:11;20.30;97.00
22923;DHT22;11627;51.322;22.816;2023-08-21T04:20:37;20.40;96.30
22923;DHT22;11627;51.322;22.816;2023-08-21T04:23:03;20.40;95.90
22923;DHT22;11627;51.322;22.816;2023-08-21T04:25:29;20.50;93.60
22923;DHT22;11627;51.322;22.816;2023-08-21T04:27:55;20.50;94.50
22923;DHT22;11627;51.322;22.816;2023-08-21T04:30:21;20.60;93.50
22923;DHT22;11627;51.322;22.816;2023-08-21T04:32:47;20.60;91.90
22923;DHT22;11627;51.322;22.816;2023-08-21T04:35:13;20.70;91.90
22923;DHT22;11627;51.322;22.816;2023-08-21T04:37:43;20.70;90.80
22923;DHT22;11627;51.322;22.816;2023-08-21T04:40:11;20.80;90.60
22923;DHT22;11627;51.322;22.816;2023-08-21T04:42:37;20.80;88.30
22923;DHT22;11627;51.322;22.816;2023-08-21T04:45:04;20.90;88.60
22923;DHT22;11627;51.322;22.816;2023-08-21T04:47:31;21.00;89.20
22923;DHT22;11627;51.322;22.816;2023-08-21T04:49:57;21.00;85.40
22923;DHT22;11627;51.322;22.816;2023-08-21T04:52:24;21.10;82.90
22923;DHT22;11627;51.322;22.816;2023-08-21T04:54:51;21.10;79.20
22923;DHT22;11627;51.322;22.816;2023-08-21T04:57:17;21.10;76.20
22923;DHT22;11627;51.322;22.816;2023-08-21T04:59:44;21.20;78.70
22923;DHT22;11627;51.322;22.816;2023-08-21T05:02:10;21.30;79.10
22923;DHT22;11627;51.322;22.816;2023-08-21T05:04:36;21.30;74.20
22923;DHT22;11627;51.322;22.816;2023-08-21T05:07:03;21.40;75.90
22923;DHT22;11627;51.322;22.816;2023-08-21T05:09:30;21.40;73.50
22923;DHT22;11627;51.322;22.816;2023-08-21T05:11:56;21.50;71.60
22923;DHT22;11627;51.322;22.816;2023-08-21T05:14:23;21.50;70.30
22923;DHT22;11627;51.322;22.816;2023-08-21T05:16:49;21.60;69.50
22923;DHT22;11627;51.322;22.816;2023-08-21T05:19:16;21.70;63.70
22923;DHT22;11627;51.322;22.816;2023-08-21T05:21:43;21.80;61.00
22923;DHT22;11627;51.322;22.816;2023-08-21T05:24:09;21.90;59.40
22923;DHT22;11627;51.322;22.816;2023-08-21T05:26:38;22.00;53.90
22923;DHT22;11627;51.322;22.816;2023-08-21T05:29:04;22.10;51.30
22923;DHT22;11627;51.322;22.816;2023-08-21T05:31:30;22.20;45.30
22923;DHT22;11627;51.322;22.816;2023-08-21T05:33:56;22.30;39.30
22923;DHT22;11627;51.322;22.816;2023-08-21T05:36:22;22.30;33.60
22923;DHT22;11627;51.322;22.816;2023-08-21T05:38:48;22.40;37.90
22923;DHT22;11627;51.322;22.816;2023-08-21T05:41:16;22.50;38.60
22923;DHT22;11627;51.322;22.816;2023-08-21T05:43:43;22.60;29.00
22923;DHT22;11627;51.322;22.816;2023-08-21T05:46:11;22.70;28.80
22923;DHT22;11627;51.322;22.816;2023-08-21T05:48:37;22.80;30.10
22923;DHT22;11627;51.322;22.816;2023-08-21T05:51:03;22.90;26.20
22923;DHT22;11627;51.322;22.816;2023-08-21T05:53:30;23.00;9.50
22923;DHT22;11627;51.322;22.816;2023-08-21T05:55:56;23.10;13.00
22923;DHT22;11627;51.322;22.816;2023-08-21T05:58:22;23.20;11.60
22923;DHT22;11627;51.322;22.816;2023-08-21T06:00:48;23.40;8.00
22923;DHT22;11627;51.322;22.816;2023-08-21T06:03:14;23.40;7.60
22923;DHT22;11627;51.322;22.816;2023-08-21T06:05:40;23.50;12.60
22923;DHT22;11627;51.322;22.816;2023-08-21T06:08:07;23.60;4.60
22923;DHT22;11627;51.322;22.816;2023-08-21T06:10:35;23.70;1.00
22923;DHT22;11627;51.322;22.816;2023-08-21T06:13:01;23.70;1.40
22923;DHT22;11627;51.322;22.816;2023-08-21T06:15:27;23.90;1.00
22923;DHT22;11627;51.322;22.816;2023-08-21T06:17:53;24.00;1.00
22923;DHT22;11627;51.322;22.816;2023-08-21T06:20:19;24.20;1.00
22923;DHT22;11627;51.322;22.816;2023-08-21T06:22:46;24.30;1.00
22923;DHT22;11627;51.322;22.816;2023-08-21T06:25:12;24.30;1.00
22923;DHT22;11627;51.322;22.816;2023-08-21T06:27:39;24.40;1.00
22923;DHT22;11627;51.322;22.816;2023-08-21T06:30:05;24.40;1.00
22923;DHT22;11627;51.322;22.816;2023-08-21T06:32:32;24.50;1.00
22923;DHT22;11627;51.322;22.816;2023-08-21T06:34:57;24.60;1.00
22923;DHT22;11627;51.322;22.816;2023-08-21T06:37:23;24.70;1.00
22923;DHT22;11627;51.322;22.816;2023-08-21T06:39:50;24.80;1.00
22923;DHT22;11627;51.322;22.816;2023-08-21T06:42:16;24.90;1.00
22923;DHT22;11627;51.322;22.816;2023-08-21T06:44:42;25.00;1.00
22923;DHT22;11627;51.322;22.816;2023-08-21T06:47:07;25.10;1.00
22923;DHT22;11627;51.322;22.816;2023-08-21T06:49:33;25.10;1.00
22923;DHT22;11627;51.322;22.816;2023-08-21T06:51:59;25.30;1.00
22923;DHT22;11627;51.322;22.816;2023-08-21T06:54:25;25.40;1.00
22923;DHT22;11627;51.322;22.816;2023-08-21T06:56:51;25.50;1.00
22923;DHT22;11627;51.322;22.816;2023-08-21T06:59:17;25.60;1.00
22923;DHT22;11627;51.322;22.816;2023-08-21T07:01:43;25.80;1.00
22923;DHT22;11627;51.322;22.816;2023-08-21T07:04:08;25.80;1.00
22923;DHT22;11627;51.322;22.816;2023-08-21T07:06:34;25.90;1.00
22923;DHT22;11627;51.322;22.816;2023-08-21T07:09:00;26.10;1.00
22923;DHT22;11627;51.322;22.816;2023-08-21T07:11:27;26.20;1.00
22923;DHT22;11627;51.322;22.816;2023-08-21T07:13:52;26.30;1.00
22923;DHT22;11627;51.322;22.816;2023-08-21T07:16:18;26.40;1.00
22923;DHT22;11627;51.322;22.816;2023-08-21T07:18:44;26.50;99.90
22923;DHT22;11627;51.322;22.816;2023-08-21T07:21:10;26.50;99.90
22923;DHT22;11627;51.322;22.816;2023-08-21T07:23:36;26.70;99.90
22923;DHT22;11627;51.322;22.816;2023-08-21T07:26:01;26.80;99.90
22923;DHT22;11627;51.322;22.816;2023-08-21T07:28:29;27.00;99.90
22923;DHT22;11627;51.322;22.816;2023-08-21T07:30:56;27.10;99.90
22923;DHT22;11627;51.322;22.816;2023-08-21T07:33:24;27.20;99.90
22923;DHT22;11627;51.322;22.816;2023-08-21T07:36:03;27.20;99.90
22923;DHT22;11627;51.322;22.816;2023-08-21T07:38:30;27.30;99.90
22923;DHT22;11627;51.322;22.816;2023-08-21T07:41:07;27.40;99.90
22923;DHT22;11627;51.322;22.816;2023-08-21T07:43:39;27.40;99.90
22923;DHT22;11627;51.322;22.816;2023-08-21T07:46:07;27.40;99.90
22923;DHT22;11627;51.322;22.816;2023-08-21T07:48:35;27.50;99.90
22923;DHT22;11627;51.322;22.816;2023-08-21T07:51:01;27.50;99.90
22923;DHT22;11627;51.322;22.816;2023-08-21T07:53:28;27.60;99.90
22923;DHT22;11627;51.322;22.816;2023-08-21T07:55:55;27.60;22.40
22923;DHT22;11627;51.322;22.816;2023-08-21T07:58:21;27.80;97.20
22923;DHT22;11627;51.322;22.816;2023-08-21T08:00:47;27.90;81.10
22923;DHT22;11627;51.322;22.816;2023-08-21T08:03:13;27.90;36.40
22923;DHT22;11627;51.322;22.816;2023-08-21T08:05:40;28.00;1.00
22923;DHT22;11627;51.322;22.816;2023-08-21T08:08:08;28.10;99.90
22923;DHT22;11627;51.322;22.816;2023-08-21T08:10:37;28.10;99.90
22923;DHT22;11627;51.322;22.816;2023-08-21T08:13:04;28.20;99.90
22923;DHT22;11627;51.322;22.816;2023-08-21T08:15:30;28.40;3.00
22923;DHT22;11627;51.322;22.816;2023-08-21T08:17:57;28.40;99.90
22923;DHT22;11627;51.322;22.816;2023-08-21T08:20:23;28.40;99.90
22923;DHT22;11627;51.322;22.816;2023-08-21T08:22:49;28.50;33.50
22923;DHT22;11627;51.322;22.816;2023-08-21T08:25:14;28.40;99.90
22923;DHT22;11627;51.322;22.816;2023-08-21T08:27:40;28.40;99.90
22923;DHT22;11627;51.322;22.816;2023-08-21T08:30:07;28.60;99.90
22923;DHT22;11627;51.322;22.816;2023-08-21T08:32:33;28.70;99.90
22923;DHT22;11627;51.322;22.816;2023-08-21T08:34:59;28.80;99.90
22923;DHT22;11627;51.322;22.816;2023-08-21T08:37:25;28.80;11.90
22923;DHT22;11627;51.322;22.816;2023-08-21T08:39:51;28.90;99.90
22923;DHT22;11627;51.322;22.816;2023-08-21T08:42:17;29.00;1.00
22923;DHT22;11627;51.322;22.816;2023-08-21T08:44:43;29.00;99.90
22923;DHT22;11627;51.322;22.816;2023-08-21T08:47:14;29.00;99.90
22923;DHT22;11627;51.322;22.816;2023-08-21T08:49:42;29.20;68.50
22923;DHT22;11627;51.322;22.816;2023-08-21T08:52:09;29.10;99.90
22923;DHT22;11627;51.322;22.816;2023-08-21T08:54:35;29.20;1.00
22923;DHT22;11627;51.322;22.816;2023-08-21T08:57:03;29.30;99.90
22923;DHT22;11627;51.322;22.816;2023-08-21T08:59:33;29.40;99.90
22923;DHT22;11627;51.322;22.816;2023-08-21T09:01:58;29.50;1.00
22923;DHT22;11627;51.322;22.816;2023-08-21T09:04:24;29.70;1.00
22923;DHT22;11627;51.322;22.816;2023-08-21T09:06:50;29.90;1.00
22923;DHT22;11627;51.322;22.816;2023-08-21T09:09:16;30.00;99.90
22923;DHT22;11627;51.322;22.816;2023-08-21T09:11:43;30.00;99.90
22923;DHT22;11627;51.322;22.816;2023-08-21T09:14:10;30.10;99.90
22923;DHT22;11627;51.322;22.816;2023-08-21T09:16:37;30.10;99.90
22923;DHT22;11627;51.322;22.816;2023-08-21T09:19:03;29.80;99.90
22923;DHT22;11627;51.322;22.816;2023-08-21T09:21:29;29.70;99.90
22923;DHT22;11627;51.322;22.816;2023-08-21T09:23:59;29.70;99.90
22923;DHT22;11627;51.322;22.816;2023-08-21T09:26:26;29.70;99.90
22923;DHT22;11627;51.322;22.816;2023-08-21T09:28:53;29.70;99.90
22923;DHT22;11627;51.322;22.816;2023-08-21T09:31:22;29.70;99.90
22923;DHT22;11627;51.322;22.816;2023-08-21T09:34:02;29.60;99.90
22923;DHT22;11627;51.322;22.816;2023-08-21T09:36:33;29.50;99.90
22923;DHT22;11627;51.322;22.816;2023-08-21T09:38:59;29.40;99.90
22923;DHT22;11627;51.322;22.816;2023-08-21T09:41:26;29.40;99.90
22923;DHT22;11627;51.322;22.816;2023-08-21T09:43:52;29.40;99.90
22923;DHT22;11627;51.322;22.816;2023-08-21T09:46:24;29.30;99.90
22923;DHT22;11627;51.322;22.816;2023-08-21T09:48:54;29.10;99.90
22923;DHT22;11627;51.322;22.816;2023-08-21T09:51:21;29.00;99.90
22923;DHT22;11627;51.322;22.816;2023-08-21T09:53:50;28.80;99.90
22923;DHT22;11627;51.322;22.816;2023-08-21T09:56:19;28.40;99.90
22923;DHT22;11627;51.322;22.816;2023-08-21T09:58:48;28.00;71.30
22923;DHT22;11627;51.322;22.816;2023-08-21T10:01:16;27.60;99.90
22923;DHT22;11627;51.322;22.816;2023-08-21T10:03:43;27.40;99.90
22923;DHT22;11627;51.322;22.816;2023-08-21T10:06:16;27.30;99.90
22923;DHT22;11627;51.322;22.816;2023-08-21T10:08:46;27.10;99.90
22923;DHT22;11627;51.322;22.816;2023-08-21T10:11:17;27.00;99.90
22923;DHT22;11627;51.322;22.816;2023-08-21T10:13:45;26.90;99.90
22923;DHT22;11627;51.322;22.816;2023-08-21T10:16:11;26.90;99.90
22923;DHT22;11627;51.322;22.816;2023-08-21T10:18:41;26.90;99.90
22923;DHT22;11627;51.322;22.816;2023-08-21T10:21:20;26.80;99.90
22923;DHT22;11627;51.322;22.816;2023-08-21T10:23:51;26.70;99.90
22923;DHT22;11627;51.322;22.816;2023-08-21T10:26:21;26.70;99.90
22923;DHT22;11627;51.322;22.816;2023-08-21T10:31:45;26.60;99.90
22923;DHT22;11627;51.322;22.816;2023-08-21T10:34:12;26.50;99.90
22923;DHT22;11627;51.322;22.816;2023-08-21T10:39:23;26.30;99.90
22923;DHT22;11627;51.322;22.816;2023-08-21T10:41:57;26.10;1.00
22923;DHT22;11627;51.322;22.816;2023-08-21T10:44:48;26.10;1.00
22923;DHT22;11627;51.322;22.816;2023-08-21T10:47:31;25.90;1.00
22923;DHT22;11627;51.322;22.816;2023-08-21T10:50:01;25.90;1.00
22923;DHT22;11627;51.322;22.816;2023-08-21T10:52:31;25.90;1.00
22923;DHT22;11627;51.322;22.816;2023-08-21T10:55:02;25.90;1.00
22923;DHT22;11627;51.322;22.816;2023-08-21T10:57:32;25.80;1.00
22923;DHT22;11627;51.322;22.816;2023-08-21T11:00:09;25.80;1.00
22923;DHT22;11627;51.322;22.816;2023-08-21T11:02:38;25.60;1.00
22923;DHT22;11627;51.322;22.816;2023-08-21T11:05:05;25.70;1.00
22923;DHT22;11627;51.322;22.816;2023-08-21T11:07:48;25.70;1.00
22923;DHT22;11627;51.322;22.816;2023-08-21T11:10:16;25.70;1.00
22923;DHT22;11627;51.322;22.816;2023-08-21T11:12:52;25.70;1.00
22923;DHT22;11627;51.322;22.816;2023-08-21T11:15:19;25.60;1.00
22923;DHT22;11627;51.322;22.816;2023-08-21T11:17:56;25.60;1.00
22923;DHT22;11627;51.322;22.816;2023-08-21T11:20:34;25.50;1.00
22923;DHT22;11627;51.322;22.816;2023-08-21T11:23:03;25.50;1.00
22923;DHT22;11627;51.322;22.816;2023-08-21T11:25:32;25.50;1.00
22923;DHT22;11627;51.322;22.816;2023-08-21T11:27:59;25.60;1.00
22923;DHT22;11627;51.322;22.816;2023-08-21T11:30:28;25.50;1.00
22923;DHT22;11627;51.322;22.816;2023-08-21T11:33:10;25.60;1.00
22923;DHT22;11627;51.322;22.816;2023-08-21T11:35:38;25.60;1.00
22923;DHT22;11627;51.322;22.816;2023-08-21T11:38:05;25.50;1.00
22923;DHT22;11627;51.322;22.816;2023-08-21T11:40:35;25.60;1.00
22923;DHT22;11627;51.322;22.816;2023-08-21T11:43:01;25.50;1.00
22923;DHT22;11627;51.322;22.816;2023-08-21T11:45:29;25.50;1.00
22923;DHT22;11627;51.322;22.816;2023-08-21T11:47:58;25.50;1.00
22923;DHT22;11627;51.322;22.816;2023-08-21T11:50:25;25.70;1.00
22923;DHT22;11627;51.322;22.816;2023-08-21T11:52:52;25.70;1.00
22923;DHT22;11627;51.322;22.816;2023-08-21T11:55:18;25.90;1.00
22923;DHT22;11627;51.322;22.816;2023-08-21T11:57:49;26.10;99.90
22923;DHT22;11627;51.322;22.816;2023-08-21T12:00:19;26.30;99.90
22923;DHT22;11627;51.322;22.816;2023-08-21T12:03:00;26.60;99.90
22923;DHT22;11627;51.322;22.816;2023-08-21T12:05:28;26.70;99.90
22923;DHT22;11627;51.322;22.816;2023-08-21T12:07:55;26.80;99.90
22923;DHT22;11627;51.322;22.816;2023-08-21T12:10:29;26.90;99.90
22923;DHT22;11627;51.322;22.816;2023-08-21T12:12:55;26.90;99.90
22923;DHT22;11627;51.322;22.816;2023-08-21T12:15:22;27.00;99.90
22923;DHT22;11627;51.322;22.816;2023-08-21T12:17:48;27.10;99.90
22923;DHT22;11627;51.322;22.816;2023-08-21T12:20:14;27.30;99.90
22923;DHT22;11627;51.322;22.816;2023-08-21T12:22:40;27.20;99.90
22923;DHT22;11627;51.322;22.816;2023-08-21T12:25:09;27.30;99.90
22923;DHT22;11627;51.322;22.816;2023-08-21T12:27:36;27.20;99.90
22923;DHT22;11627;51.322;22.816;2023-08-21T12:30:03;27.20;99.90
22923;DHT22;11627;51.322;22.816;2023-08-21T12:32:29;27.20;99.90
22923;DHT22;11627;51.322;22.816;2023-08-21T12:34:55;27.40;99.90
22923;DHT22;11627;51.322;22.816;2023-08-21T12:37:21;27.80;99.90
22923;DHT22;11627;51.322;22.816;2023-08-21T12:39:47;27.80;1.00
22923;DHT22;11627;51.322;22.816;2023-08-21T12:42:12;27.90;1.00
22923;DHT22;11627;51.322;22.816;2023-08-21T12:44:38;27.90;99.90
22923;DHT22;11627;51.322;22.816;2023-08-21T12:47:04;28.00;99.90
22923;DHT22;11627;51.322;22.816;2023-08-21T12:49:30;27.90;99.90
22923;DHT22;11627;51.322;22.816;2023-08-21T12:51:56;27.90;99.90
22923;DHT22;11627;51.322;22.816;2023-08-21T12:54:22;27.80;99.90
22923;DHT22;11627;51.322;22.816;2023-08-21T12:56:48;28.00;99.90
22923;DHT22;11627;51.322;22.816;2023-08-21T12:59:14;28.00;99.90
22923;DHT22;11627;51.322;22.816;2023-08-21T13:01:39;28.00;55.00
22923;DHT22;11627;51.322;22.816;2023-08-21T13:04:05;28.10;99.90
22923;DHT22;11627;51.322;22.816;2023-08-21T13:06:31;28.30;99.90
22923;DHT22;11627;51.322;22.816;2023-08-21T13:08:57;28.20;85.40
22923;DHT22;11627;51.322;22.816;2023-08-21T13:11:23;28.30;1.00
22923;DHT22;11627;51.322;22.816;2023-08-21T13:13:49;28.30;99.90
22923;DHT22;11627;51.322;22.816;2023-08-21T13:16:15;28.50;90.00
22923;DHT22;11627;51.322;22.816;2023-08-21T13:18:41;28.70;1.00
22923;DHT22;11627;51.322;22.816;2023-08-21T13:21:07;28.90;99.90
22923;DHT22;11627;51.322;22.816;2023-08-21T13:23:33;28.90;99.90
22923;DHT22;11627;51.322;22.816;2023-08-21T13:26:00;28.90;99.90
22923;DHT22;11627;51.322;22.816;2023-08-21T13:28:27;28.80;99.90
22923;DHT22;11627;51.322;22.816;2023-08-21T13:30:53;28.60;99.90
22923;DHT22;11627;51.322;22.816;2023-08-21T13:33:19;28.50;99.90
22923;DHT22;11627;51.322;22.816;2023-08-21T13:35:46;28.70;99.90
22923;DHT22;11627;51.322;22.816;2023-08-21T13:38:15;28.70;99.90
22923;DHT22;11627;51.322;22.816;2023-08-21T13:40:41;28.70;99.90
22923;DHT22;11627;51.322;22.816;2023-08-21T13:43:07;28.80;99.90
22923;DHT22;11627;51.322;22.816;2023-08-21T13:45:36;28.80;99.90
22923;DHT22;11627;51.322;22.816;2023-08-21T13:48:02;29.00;99.90
22923;DHT22;11627;51.322;22.816;2023-08-21T13:50:29;29.10;99.90
22923;DHT22;11627;51.322;22.816;2023-08-21T13:52:55;29.10;1.00
22923;DHT22;11627;51.322;22.816;2023-08-21T13:55:22;29.00;99.90
22923;DHT22;11627;51.322;22.816;2023-08-21T13:57:48;29.00;1.00
22923;DHT22;11627;51.322;22.816;2023-08-21T14:00:14;29.00;1.00
22923;DHT22;11627;51.322;22.816;2023-08-21T14:02:43;28.90;99.80
22923;DHT22;11627;51.322;22.816;2023-08-21T14:05:10;28.90;99.90
22923;DHT22;11627;51.322;22.816;2023-08-21T14:07:36;28.80;99.90
22923;DHT22;11627;51.322;22.816;2023-08-21T14:10:04;28.90;99.90
22923;DHT22;11627;51.322;22.816;2023-08-21T14:12:31;28.90;99.90
22923;DHT22;11627;51.322;22.816;2023-08-21T14:14:58;29.10;99.90
22923;DHT22;11627;51.322;22.816;2023-08-21T14:17:25;29.10;99.90
22923;DHT22;11627;51.322;22.816;2023-08-21T14:19:51;29.10;99.90
22923;DHT22;11627;51.322;22.816;2023-08-21T14:22:16;29.20;99.90
22923;DHT22;11627;51.322;22.816;2023-08-21T14:24:42;29.20;99.90
22923;DHT22;11627;51.322;22.816;2023-08-21T14:27:08;29.20;99.90
22923;DHT22;11627;51.322;22.816;2023-08-21T14:29:34;29.10;99.90
22923;DHT22;11627;51.322;22.816;2023-08-21T14:32:00;29.20;99.90
22923;DHT22;11627;51.322;22.816;2023-08-21T14:34:26;29.30;99.90
22923;DHT22;11627;51.322;22.816;2023-08-21T14:36:55;29.50;1.00
22923;DHT22;11627;51.322;22.816;2023-08-21T14:39:25;29.40;1.00
22923;DHT22;11627;51.322;22.816;2023-08-21T14:41:58;29.40;93.80
22923;DHT22;11627;51.322;22.816;2023-08-21T14:44:24;29.50;99.90
22923;DHT22;11627;51.322;22.816;2023-08-21T14:46:54;29.60;99.90
22923;DHT22;11627;51.322;22.816;2023-08-21T14:49:21;29.70;99.90
22923;DHT22;11627;51.322;22.816;2023-08-21T14:51:48;29.70;99.90
22923;DHT22;11627;51.322;22.816;2023-08-21T14:54:13;29.60;99.90
22923;DHT22;11627;51.322;22.816;2023-08-21T14:56:39;29.50;99.90
22923;DHT22;11627;51.322;22.816;2023-08-21T14:59:05;29.30;99.90
22923;DHT22;11627;51.322;22.816;2023-08-21T15:01:31;29.10;99.90
22923;DHT22;11627;51.322;22.816;2023-08-21T15:03:57;28.80;99.90
22923;DHT22;11627;51.322;22.816;2023-08-21T15:06:23;28.60;99.90
22923;DHT22;11627;51.322;22.816;2023-08-21T15:08:48;28.50;99.90
22923;DHT22;11627;51.322;22.816;2023-08-21T15:11:14;28.40;99.90
22923;DHT22;11627;51.322;22.816;2023-08-21T15:13:40;28.60;69.90
22923;DHT22;11627;51.322;22.816;2023-08-21T15:16:06;29.40;1.00
22923;DHT22;11627;51.322;22.816;2023-08-21T15:18:32;30.30;99.90
22923;DHT22;11627;51.322;22.816;2023-08-21T15:20:58;31.00;1.00
22923;DHT22;11627;51.322;22.816;2023-08-21T15:23:24;31.60;99.90
22923;DHT22;11627;51.322;22.816;2023-08-21T15:25:51;32.20;99.90
22923;DHT22;11627;51.322;22.816;2023-08-21T15:28:17;33.00;99.90
22923;DHT22;11627;51.322;22.816;2023-08-21T15:30:43;33.20;1.00
22923;DHT22;11627;51.322;22.816;2023-08-21T15:33:09;33.20;1.00